RYR1SR LEBL-LEMH
Flight info
| Callsign | RYR1SR |
|---|---|
| Flight time | 0h 36m |
| Altitude | 19000 |
| Route | DUNES Q700 SARGO |
| Aircraft | B738/M-SDE2E3FGHIRWXY/LB1 |
Departure
| Time | 2026-05-07 10:09 |
|---|---|
| Airport | Josep Tarradellas Barcelona-El Prat Airport (LEBL) |
Arrival
| Time | 2026-05-07 10:46 |
|---|---|
| Airport | Menorca Airport (LEMH) |
| Time | Latitude | Longitude | Altitude | Speed | Heading |
|---|---|---|---|---|---|
| 2026-05-07 09:35 | 41.30154 | 2.07778 | 20 ft | 0 kts | 356° |
| 2026-05-07 09:57 | 41.30143 | 2.07779 | 19 ft | 4 kts | 355° |
| 2026-05-07 09:57 | 41.30116 | 2.07781 | 19 ft | 3 kts | 357° |
| 2026-05-07 09:58 | 41.30089 | 2.07781 | 18 ft | 3 kts | 9° |
| 2026-05-07 09:58 | 41.30068 | 2.07769 | 18 ft | 3 kts | 58° |
| 2026-05-07 09:58 | 41.30065 | 2.07764 | 20 ft | 0 kts | 65° |
| 2026-05-07 10:01 | 41.30071 | 2.07780 | 17 ft | 4 kts | 65° |
| 2026-05-07 10:01 | 41.30088 | 2.07831 | 19 ft | 8 kts | 65° |
| 2026-05-07 10:01 | 41.30112 | 2.07905 | 19 ft | 9 kts | 76° |
| 2026-05-07 10:01 | 41.30068 | 2.07972 | 16 ft | 11 kts | 157° |
| 2026-05-07 10:02 | 41.29995 | 2.08018 | 19 ft | 12 kts | 152° |
| 2026-05-07 10:02 | 41.29928 | 2.08054 | 17 ft | 7 kts | 160° |
| 2026-05-07 10:02 | 41.29909 | 2.08063 | 17 ft | 0 kts | 160° |
| 2026-05-07 10:03 | 41.29899 | 2.08068 | 18 ft | 3 kts | 160° |
| 2026-05-07 10:03 | 41.29863 | 2.08085 | 17 ft | 7 kts | 160° |
| 2026-05-07 10:03 | 41.29805 | 2.08114 | 18 ft | 10 kts | 158° |
| 2026-05-07 10:04 | 41.29729 | 2.08160 | 18 ft | 15 kts | 155° |
| 2026-05-07 10:04 | 41.29625 | 2.08223 | 16 ft | 18 kts | 155° |
| 2026-05-07 10:04 | 41.29502 | 2.08297 | 16 ft | 20 kts | 155° |
| 2026-05-07 10:04 | 41.29373 | 2.08375 | 18 ft | 20 kts | 155° |
| 2026-05-07 10:05 | 41.29246 | 2.08449 | 20 ft | 20 kts | 164° |
| 2026-05-07 10:05 | 41.29123 | 2.08410 | 19 ft | 18 kts | 199° |
| 2026-05-07 10:05 | 41.29008 | 2.08358 | 18 ft | 17 kts | 199° |
| 2026-05-07 10:05 | 41.28896 | 2.08307 | 17 ft | 17 kts | 199° |
| 2026-05-07 10:06 | 41.28788 | 2.08258 | 16 ft | 16 kts | 198° |
| 2026-05-07 10:06 | 41.28694 | 2.08210 | 17 ft | 13 kts | 215° |
| 2026-05-07 10:06 | 41.28649 | 2.08108 | 17 ft | 13 kts | 245° |
| 2026-05-07 10:06 | 41.28613 | 2.08003 | 18 ft | 12 kts | 245° |
| 2026-05-07 10:07 | 41.28578 | 2.07899 | 17 ft | 12 kts | 246° |
| 2026-05-07 10:07 | 41.28542 | 2.07794 | 15 ft | 14 kts | 245° |
| 2026-05-07 10:07 | 41.28496 | 2.07659 | 15 ft | 18 kts | 245° |
| 2026-05-07 10:07 | 41.28442 | 2.07503 | 16 ft | 14 kts | 245° |
| 2026-05-07 10:08 | 41.28405 | 2.07395 | 16 ft | 11 kts | 245° |
| 2026-05-07 10:08 | 41.28345 | 2.07338 | 15 ft | 11 kts | 187° |
| 2026-05-07 10:08 | 41.28273 | 2.07369 | 16 ft | 11 kts | 155° |
| 2026-05-07 10:08 | 41.28238 | 2.07446 | 17 ft | 11 kts | 80° |
| 2026-05-07 10:09 | 41.28266 | 2.07537 | 18 ft | 14 kts | 65° |
| 2026-05-07 10:09 | 41.28398 | 2.07923 | 19 ft | 83 kts | 65° |
| 2026-05-07 10:09 | 41.28734 | 2.08906 | 25 ft | 147 kts | 65° |
| 2026-05-07 10:09 | 41.29183 | 2.10201 | 660 ft | 158 kts | 67° |
| 2026-05-07 10:10 | 41.29361 | 2.11672 | 1485 ft | 166 kts | 97° |
| 2026-05-07 10:10 | 41.29157 | 2.13252 | 2147 ft | 187 kts | 98° |
| 2026-05-07 10:10 | 41.28988 | 2.15040 | 2760 ft | 201 kts | 97° |
| 2026-05-07 10:10 | 41.28824 | 2.16914 | 3281 ft | 216 kts | 96° |
| 2026-05-07 10:11 | 41.28639 | 2.19014 | 3656 ft | 237 kts | 96° |
| 2026-05-07 10:11 | 41.28433 | 2.21319 | 4123 ft | 260 kts | 97° |
| 2026-05-07 10:11 | 41.28214 | 2.23723 | 4897 ft | 270 kts | 96° |
| 2026-05-07 10:11 | 41.27981 | 2.26255 | 5786 ft | 275 kts | 97° |
| 2026-05-07 10:12 | 41.27748 | 2.28770 | 6672 ft | 280 kts | 97° |
| 2026-05-07 10:12 | 41.27410 | 2.31343 | 7496 ft | 286 kts | 109° |
| 2026-05-07 10:12 | 41.26601 | 2.33771 | 8413 ft | 288 kts | 117° |
| 2026-05-07 10:12 | 41.25701 | 2.36171 | 9285 ft | 293 kts | 117° |
| 2026-05-07 10:13 | 41.24783 | 2.38608 | 10153 ft | 297 kts | 117° |
| 2026-05-07 10:13 | 41.23839 | 2.41131 | 10608 ft | 317 kts | 117° |
| 2026-05-07 10:13 | 41.22827 | 2.43860 | 10893 ft | 339 kts | 117° |
| 2026-05-07 10:13 | 41.21779 | 2.46710 | 11579 ft | 347 kts | 117° |
| 2026-05-07 10:14 | 41.20721 | 2.49602 | 12429 ft | 349 kts | 117° |
| 2026-05-07 10:14 | 41.19659 | 2.52513 | 13308 ft | 351 kts | 117° |
| 2026-05-07 10:14 | 41.18588 | 2.55447 | 14091 ft | 355 kts | 117° |
| 2026-05-07 10:14 | 41.17506 | 2.58411 | 14853 ft | 357 kts | 117° |
| 2026-05-07 10:15 | 41.16424 | 2.61373 | 15747 ft | 355 kts | 118° |
| 2026-05-07 10:15 | 41.15347 | 2.64312 | 16656 ft | 353 kts | 118° |
| 2026-05-07 10:15 | 41.14257 | 2.67235 | 17480 ft | 353 kts | 122° |
| 2026-05-07 10:15 | 41.12930 | 2.69965 | 18292 ft | 352 kts | 129° |
| 2026-05-07 10:16 | 41.11459 | 2.72556 | 18788 ft | 354 kts | 131° |
| 2026-05-07 10:16 | 41.09972 | 2.75138 | 19027 ft | 352 kts | 131° |
| 2026-05-07 10:16 | 41.08477 | 2.77729 | 19011 ft | 353 kts | 131° |
| 2026-05-07 10:16 | 41.06987 | 2.80309 | 19017 ft | 351 kts | 131° |
| 2026-05-07 10:17 | 41.05503 | 2.82878 | 19027 ft | 351 kts | 131° |
| 2026-05-07 10:17 | 41.04019 | 2.85448 | 19025 ft | 350 kts | 131° |
| 2026-05-07 10:17 | 41.02537 | 2.88010 | 19021 ft | 350 kts | 131° |
| 2026-05-07 10:17 | 41.01054 | 2.90573 | 19022 ft | 350 kts | 131° |
| 2026-05-07 10:18 | 40.99572 | 2.93132 | 19021 ft | 351 kts | 131° |
| 2026-05-07 10:18 | 40.98087 | 2.95696 | 19019 ft | 351 kts | 131° |
| 2026-05-07 10:18 | 40.96599 | 2.98261 | 19016 ft | 352 kts | 132° |
| 2026-05-07 10:18 | 40.95108 | 3.00831 | 19027 ft | 352 kts | 132° |
| 2026-05-07 10:19 | 40.93617 | 3.03398 | 19012 ft | 352 kts | 132° |
| 2026-05-07 10:19 | 40.92142 | 3.05936 | 19019 ft | 353 kts | 132° |
| 2026-05-07 10:19 | 40.90647 | 3.08508 | 19019 ft | 353 kts | 132° |
| 2026-05-07 10:19 | 40.89149 | 3.11081 | 19020 ft | 353 kts | 132° |
| 2026-05-07 10:20 | 40.87651 | 3.13652 | 19013 ft | 353 kts | 132° |
| 2026-05-07 10:20 | 40.86160 | 3.16238 | 19016 ft | 354 kts | 129° |
| 2026-05-07 10:20 | 40.84831 | 3.18992 | 19020 ft | 357 kts | 124° |
| 2026-05-07 10:20 | 40.83607 | 3.21850 | 19014 ft | 357 kts | 123° |
| 2026-05-07 10:21 | 40.82412 | 3.24731 | 19016 ft | 358 kts | 123° |
| 2026-05-07 10:21 | 40.81218 | 3.27607 | 19010 ft | 357 kts | 123° |
| 2026-05-07 10:21 | 40.80012 | 3.30477 | 19014 ft | 357 kts | 123° |
| 2026-05-07 10:21 | 40.78799 | 3.33332 | 19015 ft | 357 kts | 123° |
| 2026-05-07 10:22 | 40.77576 | 3.36187 | 19015 ft | 357 kts | 124° |
| 2026-05-07 10:22 | 40.76348 | 3.39035 | 19012 ft | 357 kts | 124° |
| 2026-05-07 10:22 | 40.75119 | 3.41875 | 19020 ft | 357 kts | 124° |
| 2026-05-07 10:22 | 40.73887 | 3.44713 | 19009 ft | 356 kts | 124° |
| 2026-05-07 10:23 | 40.72654 | 3.47550 | 19017 ft | 356 kts | 124° |
| 2026-05-07 10:23 | 40.71422 | 3.50383 | 19019 ft | 356 kts | 124° |
| 2026-05-07 10:23 | 40.70203 | 3.53181 | 19018 ft | 356 kts | 124° |
| 2026-05-07 10:23 | 40.68968 | 3.56012 | 19019 ft | 356 kts | 124° |
| 2026-05-07 10:24 | 40.67733 | 3.58842 | 19017 ft | 356 kts | 124° |
| 2026-05-07 10:24 | 40.66496 | 3.61674 | 19013 ft | 356 kts | 124° |
| 2026-05-07 10:24 | 40.65662 | 3.63582 | 19012 ft | 354 kts | 124° |
| 2026-05-07 10:24 | 40.64469 | 3.66317 | 18995 ft | 343 kts | 124° |
| 2026-05-07 10:25 | 40.63292 | 3.69010 | 19006 ft | 337 kts | 124° |
| 2026-05-07 10:25 | 40.62123 | 3.71675 | 19007 ft | 336 kts | 124° |
| 2026-05-07 10:25 | 40.60948 | 3.74349 | 18971 ft | 338 kts | 125° |
| 2026-05-07 10:25 | 40.59767 | 3.77036 | 18706 ft | 339 kts | 124° |
| 2026-05-07 10:26 | 40.58589 | 3.79716 | 18442 ft | 338 kts | 124° |
| 2026-05-07 10:26 | 40.57413 | 3.82391 | 18097 ft | 336 kts | 124° |
| 2026-05-07 10:26 | 40.56245 | 3.85045 | 17745 ft | 334 kts | 124° |
| 2026-05-07 10:26 | 40.55084 | 3.87682 | 17403 ft | 332 kts | 124° |
| 2026-05-07 10:27 | 40.53930 | 3.90302 | 17066 ft | 330 kts | 124° |
| 2026-05-07 10:27 | 40.52785 | 3.92899 | 16742 ft | 327 kts | 124° |
| 2026-05-07 10:27 | 40.51644 | 3.95481 | 16423 ft | 325 kts | 124° |
| 2026-05-07 10:27 | 40.50402 | 3.97934 | 16077 ft | 318 kts | 139° |
| 2026-05-07 10:28 | 40.48686 | 3.99593 | 15831 ft | 305 kts | 160° |
| 2026-05-07 10:28 | 40.46702 | 4.00479 | 15590 ft | 300 kts | 168° |
| 2026-05-07 10:28 | 40.44683 | 4.01194 | 15324 ft | 301 kts | 169° |
| 2026-05-07 10:28 | 40.42654 | 4.01883 | 15064 ft | 302 kts | 169° |
| 2026-05-07 10:29 | 40.40619 | 4.02577 | 14800 ft | 302 kts | 169° |
| 2026-05-07 10:29 | 40.38584 | 4.03278 | 14536 ft | 303 kts | 169° |
| 2026-05-07 10:29 | 40.36549 | 4.03987 | 14275 ft | 303 kts | 169° |
| 2026-05-07 10:30 | 40.32472 | 4.05418 | 13748 ft | 303 kts | 169° |
| 2026-05-07 10:30 | 40.30442 | 4.06135 | 13445 ft | 300 kts | 168° |
| 2026-05-07 10:30 | 40.28435 | 4.06844 | 13173 ft | 297 kts | 168° |
| 2026-05-07 10:30 | 40.26459 | 4.07543 | 12910 ft | 293 kts | 168° |
| 2026-05-07 10:31 | 40.24503 | 4.08234 | 12658 ft | 290 kts | 168° |
| 2026-05-07 10:31 | 40.22559 | 4.08920 | 12411 ft | 288 kts | 168° |
| 2026-05-07 10:31 | 40.20629 | 4.09601 | 12163 ft | 286 kts | 168° |
| 2026-05-07 10:31 | 40.18713 | 4.10276 | 11921 ft | 285 kts | 168° |
| 2026-05-07 10:32 | 40.16805 | 4.10949 | 11675 ft | 284 kts | 168° |
| 2026-05-07 10:32 | 40.14903 | 4.11618 | 11431 ft | 283 kts | 168° |
| 2026-05-07 10:32 | 40.13002 | 4.12287 | 11196 ft | 282 kts | 168° |
| 2026-05-07 10:32 | 40.11107 | 4.12953 | 10948 ft | 282 kts | 168° |
| 2026-05-07 10:33 | 40.09186 | 4.13359 | 10669 ft | 278 kts | 189° |
| 2026-05-07 10:33 | 40.07439 | 4.12458 | 10466 ft | 271 kts | 219° |
| 2026-05-07 10:33 | 40.06207 | 4.10634 | 10242 ft | 269 kts | 242° |
| 2026-05-07 10:33 | 40.05394 | 4.08467 | 10154 ft | 265 kts | 243° |
| 2026-05-07 10:34 | 40.04503 | 4.06342 | 9938 ft | 269 kts | 238° |
| 2026-05-07 10:34 | 40.03437 | 4.04322 | 9702 ft | 271 kts | 232° |
| 2026-05-07 10:34 | 40.02221 | 4.02456 | 9447 ft | 270 kts | 227° |
| 2026-05-07 10:34 | 40.00878 | 4.00746 | 9202 ft | 269 kts | 222° |
| 2026-05-07 10:35 | 39.99432 | 3.99197 | 8961 ft | 268 kts | 217° |
| 2026-05-07 10:35 | 39.97900 | 3.97818 | 8719 ft | 267 kts | 212° |
| 2026-05-07 10:35 | 39.96289 | 3.96617 | 8485 ft | 266 kts | 208° |
| 2026-05-07 10:35 | 39.94616 | 3.95606 | 8240 ft | 265 kts | 203° |
| 2026-05-07 10:36 | 39.92888 | 3.94790 | 8019 ft | 264 kts | 198° |
| 2026-05-07 10:36 | 39.91146 | 3.94173 | 7782 ft | 262 kts | 194° |
| 2026-05-07 10:36 | 39.89363 | 3.93694 | 7551 ft | 261 kts | 191° |
| 2026-05-07 10:36 | 39.87567 | 3.93379 | 7321 ft | 260 kts | 185° |
| 2026-05-07 10:37 | 39.85762 | 3.93313 | 7096 ft | 259 kts | 179° |
| 2026-05-07 10:37 | 39.83963 | 3.93487 | 6867 ft | 259 kts | 174° |
| 2026-05-07 10:37 | 39.82186 | 3.93866 | 6639 ft | 259 kts | 169° |
| 2026-05-07 10:37 | 39.80437 | 3.94428 | 6408 ft | 259 kts | 165° |
| 2026-05-07 10:38 | 39.78737 | 3.95161 | 6168 ft | 259 kts | 160° |
| 2026-05-07 10:38 | 39.77075 | 3.96075 | 5930 ft | 258 kts | 155° |
| 2026-05-07 10:38 | 39.75484 | 3.97162 | 5691 ft | 258 kts | 150° |
| 2026-05-07 10:38 | 39.73972 | 3.98415 | 5460 ft | 257 kts | 145° |
| 2026-05-07 10:39 | 39.72547 | 3.99825 | 5235 ft | 257 kts | 140° |
| 2026-05-07 10:39 | 39.71221 | 4.01374 | 5006 ft | 256 kts | 135° |
| 2026-05-07 10:39 | 39.70001 | 4.03054 | 4775 ft | 255 kts | 131° |
| 2026-05-07 10:39 | 39.68894 | 4.04852 | 4544 ft | 254 kts | 126° |
| 2026-05-07 10:40 | 39.67908 | 4.06751 | 4306 ft | 252 kts | 121° |
| 2026-05-07 10:40 | 39.67056 | 4.08715 | 4095 ft | 247 kts | 117° |
| 2026-05-07 10:40 | 39.66358 | 4.10677 | 3877 ft | 232 kts | 112° |
| 2026-05-07 10:40 | 39.65815 | 4.12576 | 3654 ft | 218 kts | 108° |
| 2026-05-07 10:41 | 39.65447 | 4.14389 | 3447 ft | 205 kts | 92° |
| 2026-05-07 10:41 | 39.65756 | 4.16168 | 3291 ft | 205 kts | 62° |
| 2026-05-07 10:41 | 39.66712 | 4.17535 | 3056 ft | 209 kts | 33° |
| 2026-05-07 10:41 | 39.68060 | 4.18171 | 2869 ft | 203 kts | 13° |
| 2026-05-07 10:42 | 39.69418 | 4.18464 | 2724 ft | 194 kts | 10° |
| 2026-05-07 10:42 | 39.70733 | 4.18710 | 2551 ft | 187 kts | 11° |
| 2026-05-07 10:42 | 39.71993 | 4.18954 | 2413 ft | 179 kts | 10° |
| 2026-05-07 10:42 | 39.73206 | 4.19181 | 2270 ft | 175 kts | 11° |
| 2026-05-07 10:43 | 39.74406 | 4.19420 | 2119 ft | 175 kts | 11° |
| 2026-05-07 10:43 | 39.75604 | 4.19666 | 1975 ft | 173 kts | 11° |
| 2026-05-07 10:43 | 39.76761 | 4.19904 | 1818 ft | 163 kts | 11° |
| 2026-05-07 10:43 | 39.77871 | 4.20134 | 1755 ft | 160 kts | 11° |
| 2026-05-07 10:44 | 39.78935 | 4.20354 | 1543 ft | 149 kts | 11° |
| 2026-05-07 10:44 | 39.79939 | 4.20562 | 1375 ft | 145 kts | 12° |
| 2026-05-07 10:44 | 39.80927 | 4.20766 | 1171 ft | 143 kts | 12° |
| 2026-05-07 10:44 | 39.81901 | 4.20967 | 974 ft | 141 kts | 12° |
| 2026-05-07 10:45 | 39.82858 | 4.21164 | 788 ft | 139 kts | 13° |
| 2026-05-07 10:45 | 39.83794 | 4.21358 | 594 ft | 134 kts | 12° |
| 2026-05-07 10:45 | 39.84699 | 4.21538 | 397 ft | 131 kts | 11° |
| 2026-05-07 10:45 | 39.85596 | 4.21723 | 291 ft | 124 kts | 9° |
| 2026-05-07 10:46 | 39.86300 | 4.21873 | 302 ft | 81 kts | 9° |
| 2026-05-07 10:46 | 39.86664 | 4.21952 | 302 ft | 33 kts | 15° |
| 2026-05-07 10:46 | 39.86833 | 4.22053 | 299 ft | 19 kts | 35° |
| 2026-05-07 10:46 | 39.86918 | 4.22146 | 300 ft | 0 kts | 43° |
| 2026-05-07 10:47 | 39.86926 | 4.22155 | 299 ft | 6 kts | 46° |
| 2026-05-07 10:47 | 39.86917 | 4.22228 | 300 ft | 11 kts | 143° |
| 2026-05-07 10:47 | 39.86837 | 4.22222 | 299 ft | 13 kts | 189° |
| 2026-05-07 10:47 | 39.86748 | 4.22204 | 297 ft | 13 kts | 189° |
| 2026-05-07 10:48 | 39.86654 | 4.22184 | 295 ft | 14 kts | 189° |
| 2026-05-07 10:48 | 39.86565 | 4.22182 | 293 ft | 12 kts | 147° |
| 2026-05-07 10:48 | 39.86538 | 4.22276 | 290 ft | 10 kts | 98° |
| 2026-05-07 10:48 | 39.86485 | 4.22320 | 287 ft | 7 kts | 184° |
| 2026-05-07 10:49 | 39.86448 | 4.22313 | 287 ft | 4 kts | 189° |
| 2026-05-07 10:49 | 39.86432 | 4.22341 | 289 ft | 5 kts | 103° |
| 2026-05-07 10:49 | 39.86426 | 4.22382 | 285 ft | 4 kts | 99° |
| 2026-05-07 10:49 | 39.86425 | 4.22391 | 285 ft | 1 kts | 99° |
| 2026-05-07 10:50 | 39.86425 | 4.22392 | 285 ft | 0 kts | 99° |